sensor_id;sensor_type;location;lat;lon;timestamp;P1;durP1;ratioP1;P2;durP2;ratioP2
66721;SDS011;53633;49.932;10.884;2022-10-31T00:00:57;11.25;;;5.00;;
66721;SDS011;53633;49.932;10.884;2022-10-31T00:03:26;11.50;;;4.28;;
66721;SDS011;53633;49.932;10.884;2022-10-31T00:05:53;10.07;;;4.60;;
66721;SDS011;53633;49.932;10.884;2022-10-31T00:08:20;10.80;;;4.40;;
66721;SDS011;53633;49.932;10.884;2022-10-31T00:10:47;8.88;;;4.28;;
66721;SDS011;53633;49.932;10.884;2022-10-31T00:13:14;12.30;;;4.40;;
66721;SDS011;53633;49.932;10.884;2022-10-31T00:15:41;8.30;;;3.83;;
66721;SDS011;53633;49.932;10.884;2022-10-31T00:18:09;14.27;;;4.90;;
66721;SDS011;53633;49.932;10.884;2022-10-31T00:20:37;11.32;;;4.75;;
66721;SDS011;53633;49.932;10.884;2022-10-31T00:23:05;14.10;;;5.60;;
66721;SDS011;53633;49.932;10.884;2022-10-31T00:25:33;15.82;;;5.63;;
66721;SDS011;53633;49.932;10.884;2022-10-31T00:28:01;14.95;;;5.65;;
66721;SDS011;53633;49.932;10.884;2022-10-31T00:30:28;17.42;;;6.00;;
66721;SDS011;53633;49.932;10.884;2022-10-31T00:32:56;15.10;;;6.40;;
66721;SDS011;53633;49.932;10.884;2022-10-31T00:35:23;19.17;;;7.15;;
66721;SDS011;53633;49.932;10.884;2022-10-31T00:37:51;15.07;;;7.53;;
66721;SDS011;53633;49.932;10.884;2022-10-31T00:40:19;13.73;;;6.47;;
66721;SDS011;53633;49.932;10.884;2022-10-31T00:42:45;17.38;;;7.43;;
66721;SDS011;53633;49.932;10.884;2022-10-31T00:45:13;15.50;;;7.25;;
66721;SDS011;53633;49.932;10.884;2022-10-31T00:47:40;16.05;;;8.00;;
66721;SDS011;53633;49.932;10.884;2022-10-31T00:50:07;16.30;;;7.60;;
66721;SDS011;53633;49.932;10.884;2022-10-31T00:52:34;14.32;;;7.55;;
66721;SDS011;53633;49.932;10.884;2022-10-31T00:55:03;17.05;;;8.20;;
66721;SDS011;53633;49.932;10.884;2022-10-31T00:57:30;17.50;;;7.63;;
66721;SDS011;53633;49.932;10.884;2022-10-31T00:59:57;18.88;;;8.25;;
66721;SDS011;53633;49.932;10.884;2022-10-31T01:02:25;15.68;;;8.13;;
66721;SDS011;53633;49.932;10.884;2022-10-31T01:04:52;16.88;;;7.68;;
66721;SDS011;53633;49.932;10.884;2022-10-31T01:07:19;21.83;;;8.75;;
66721;SDS011;53633;49.932;10.884;2022-10-31T01:09:46;14.00;;;7.63;;
66721;SDS011;53633;49.932;10.884;2022-10-31T01:12:15;13.63;;;6.38;;
66721;SDS011;53633;49.932;10.884;2022-10-31T01:14:44;18.30;;;6.60;;
66721;SDS011;53633;49.932;10.884;2022-10-31T01:17:11;16.35;;;6.65;;
66721;SDS011;53633;49.932;10.884;2022-10-31T01:19:39;16.35;;;7.25;;
66721;SDS011;53633;49.932;10.884;2022-10-31T01:22:06;16.90;;;7.60;;
66721;SDS011;53633;49.932;10.884;2022-10-31T01:24:33;14.80;;;7.10;;
66721;SDS011;53633;49.932;10.884;2022-10-31T01:27:01;15.25;;;7.68;;
66721;SDS011;53633;49.932;10.884;2022-10-31T01:29:29;13.00;;;6.15;;
66721;SDS011;53633;49.932;10.884;2022-10-31T01:31:57;11.25;;;5.60;;
66721;SDS011;53633;49.932;10.884;2022-10-31T01:34:24;11.05;;;5.35;;
66721;SDS011;53633;49.932;10.884;2022-10-31T01:36:51;11.85;;;5.50;;
66721;SDS011;53633;49.932;10.884;2022-10-31T01:39:18;10.10;;;5.47;;
66721;SDS011;53633;49.932;10.884;2022-10-31T01:41:46;10.90;;;5.40;;
66721;SDS011;53633;49.932;10.884;2022-10-31T01:47:28;9.95;;;5.15;;
66721;SDS011;53633;49.932;10.884;2022-10-31T01:50:04;9.80;;;5.55;;
66721;SDS011;53633;49.932;10.884;2022-10-31T01:52:37;11.93;;;6.18;;
66721;SDS011;53633;49.932;10.884;2022-10-31T01:55:07;14.05;;;5.82;;
66721;SDS011;53633;49.932;10.884;2022-10-31T01:57:40;12.02;;;5.97;;
66721;SDS011;53633;49.932;10.884;2022-10-31T02:00:13;10.75;;;5.57;;
66721;SDS011;53633;49.932;10.884;2022-10-31T02:02:41;11.55;;;5.57;;
66721;SDS011;53633;49.932;10.884;2022-10-31T02:05:10;14.20;;;5.75;;
66721;SDS011;53633;49.932;10.884;2022-10-31T02:07:42;14.63;;;5.50;;
66721;SDS011;53633;49.932;10.884;2022-10-31T02:10:12;14.52;;;6.20;;
66721;SDS011;53633;49.932;10.884;2022-10-31T02:12:39;16.17;;;6.40;;
66721;SDS011;53633;49.932;10.884;2022-10-31T02:15:08;13.95;;;6.65;;
66721;SDS011;53633;49.932;10.884;2022-10-31T02:17:37;14.55;;;6.18;;
66721;SDS011;53633;49.932;10.884;2022-10-31T02:20:08;22.27;;;7.10;;
66721;SDS011;53633;49.932;10.884;2022-10-31T02:22:45;12.90;;;5.97;;
66721;SDS011;53633;49.932;10.884;2022-10-31T02:25:42;12.63;;;5.80;;
66721;SDS011;53633;49.932;10.884;2022-10-31T02:28:31;13.75;;;6.25;;
66721;SDS011;53633;49.932;10.884;2022-10-31T02:31:12;16.17;;;6.18;;
66721;SDS011;53633;49.932;10.884;2022-10-31T02:33:45;16.33;;;5.65;;
66721;SDS011;53633;49.932;10.884;2022-10-31T02:36:18;12.75;;;5.53;;
66721;SDS011;53633;49.932;10.884;2022-10-31T02:38:51;16.55;;;6.18;;
66721;SDS011;53633;49.932;10.884;2022-10-31T02:41:31;14.32;;;5.60;;
66721;SDS011;53633;49.932;10.884;2022-10-31T02:44:05;13.35;;;5.55;;
66721;SDS011;53633;49.932;10.884;2022-10-31T02:46:42;12.65;;;5.50;;
66721;SDS011;53633;49.932;10.884;2022-10-31T02:49:16;11.10;;;4.95;;
66721;SDS011;53633;49.932;10.884;2022-10-31T02:51:53;14.05;;;5.53;;
66721;SDS011;53633;49.932;10.884;2022-10-31T02:54:21;15.27;;;4.90;;
66721;SDS011;53633;49.932;10.884;2022-10-31T02:56:50;18.02;;;5.53;;
66721;SDS011;53633;49.932;10.884;2022-10-31T02:59:19;17.50;;;4.85;;
66721;SDS011;53633;49.932;10.884;2022-10-31T03:07:46;18.73;;;5.63;;
66721;SDS011;53633;49.932;10.884;2022-10-31T03:10:21;20.33;;;5.57;;
66721;SDS011;53633;49.932;10.884;2022-10-31T03:12:54;16.63;;;5.30;;
66721;SDS011;53633;49.932;10.884;2022-10-31T03:15:30;13.98;;;5.40;;
66721;SDS011;53633;49.932;10.884;2022-10-31T03:18:02;14.70;;;5.75;;
66721;SDS011;53633;49.932;10.884;2022-10-31T03:20:34;15.35;;;6.57;;
66721;SDS011;53633;49.932;10.884;2022-10-31T03:23:05;19.80;;;6.28;;
66721;SDS011;53633;49.932;10.884;2022-10-31T03:25:34;12.25;;;6.35;;
66721;SDS011;53633;49.932;10.884;2022-10-31T03:28:02;16.80;;;6.63;;
66721;SDS011;53633;49.932;10.884;2022-10-31T03:30:32;13.82;;;7.50;;
66721;SDS011;53633;49.932;10.884;2022-10-31T03:33:04;13.10;;;7.82;;
66721;SDS011;53633;49.932;10.884;2022-10-31T03:35:34;12.45;;;7.07;;
66721;SDS011;53633;49.932;10.884;2022-10-31T03:38:02;12.23;;;7.13;;
66721;SDS011;53633;49.932;10.884;2022-10-31T03:40:33;12.35;;;7.53;;
66721;SDS011;53633;49.932;10.884;2022-10-31T03:43:03;13.30;;;7.38;;
66721;SDS011;53633;49.932;10.884;2022-10-31T03:45:35;14.18;;;7.22;;
66721;SDS011;53633;49.932;10.884;2022-10-31T03:48:09;11.63;;;6.55;;
66721;SDS011;53633;49.932;10.884;2022-10-31T03:50:38;12.15;;;6.85;;
66721;SDS011;53633;49.932;10.884;2022-10-31T03:53:12;12.65;;;6.95;;
66721;SDS011;53633;49.932;10.884;2022-10-31T03:55:46;16.25;;;7.25;;
66721;SDS011;53633;49.932;10.884;2022-10-31T03:58:18;12.82;;;6.88;;
66721;SDS011;53633;49.932;10.884;2022-10-31T04:00:51;13.05;;;7.43;;
66721;SDS011;53633;49.932;10.884;2022-10-31T04:03:22;18.70;;;7.75;;
66721;SDS011;53633;49.932;10.884;2022-10-31T04:05:53;13.75;;;7.95;;
66721;SDS011;53633;49.932;10.884;2022-10-31T04:08:24;16.70;;;7.82;;
66721;SDS011;53633;49.932;10.884;2022-10-31T04:10:54;13.43;;;7.93;;
66721;SDS011;53633;49.932;10.884;2022-10-31T04:13:24;15.18;;;8.32;;
66721;SDS011;53633;49.932;10.884;2022-10-31T04:15:55;16.15;;;7.60;;
66721;SDS011;53633;49.932;10.884;2022-10-31T04:18:24;15.88;;;7.53;;
66721;SDS011;53633;49.932;10.884;2022-10-31T04:20:59;16.00;;;7.68;;
66721;SDS011;53633;49.932;10.884;2022-10-31T04:23:27;18.75;;;9.02;;
66721;SDS011;53633;49.932;10.884;2022-10-31T04:25:55;21.60;;;9.00;;
66721;SDS011;53633;49.932;10.884;2022-10-31T04:28:22;17.63;;;8.73;;
66721;SDS011;53633;49.932;10.884;2022-10-31T04:30:49;18.55;;;8.73;;
66721;SDS011;53633;49.932;10.884;2022-10-31T04:33:16;15.80;;;8.20;;
66721;SDS011;53633;49.932;10.884;2022-10-31T04:35:45;20.52;;;8.55;;
66721;SDS011;53633;49.932;10.884;2022-10-31T04:38:12;13.77;;;7.53;;
66721;SDS011;53633;49.932;10.884;2022-10-31T04:40:39;14.85;;;7.55;;
66721;SDS011;53633;49.932;10.884;2022-10-31T04:43:06;13.68;;;7.28;;
66721;SDS011;53633;49.932;10.884;2022-10-31T04:45:33;11.98;;;6.38;;
66721;SDS011;53633;49.932;10.884;2022-10-31T04:48:00;12.20;;;7.00;;
66721;SDS011;53633;49.932;10.884;2022-10-31T04:50:28;13.27;;;6.18;;
66721;SDS011;53633;49.932;10.884;2022-10-31T04:52:57;10.40;;;5.70;;
66721;SDS011;53633;49.932;10.884;2022-10-31T04:55:24;11.60;;;5.90;;
66721;SDS011;53633;49.932;10.884;2022-10-31T04:57:52;10.25;;;5.75;;
66721;SDS011;53633;49.932;10.884;2022-10-31T05:00:19;10.68;;;5.45;;
66721;SDS011;53633;49.932;10.884;2022-10-31T05:02:49;10.48;;;5.32;;
66721;SDS011;53633;49.932;10.884;2022-10-31T05:05:18;12.60;;;5.70;;
66721;SDS011;53633;49.932;10.884;2022-10-31T05:07:47;11.88;;;5.40;;
66721;SDS011;53633;49.932;10.884;2022-10-31T05:10:16;11.23;;;5.75;;
66721;SDS011;53633;49.932;10.884;2022-10-31T05:12:45;10.63;;;5.65;;
66721;SDS011;53633;49.932;10.884;2022-10-31T05:15:12;11.70;;;5.43;;
66721;SDS011;53633;49.932;10.884;2022-10-31T05:17:40;10.45;;;5.20;;
66721;SDS011;53633;49.932;10.884;2022-10-31T05:20:07;10.45;;;4.75;;
66721;SDS011;53633;49.932;10.884;2022-10-31T05:22:35;13.07;;;4.70;;
66721;SDS011;53633;49.932;10.884;2022-10-31T05:25:02;11.27;;;5.53;;
66721;SDS011;53633;49.932;10.884;2022-10-31T05:27:31;11.68;;;5.30;;
66721;SDS011;53633;49.932;10.884;2022-10-31T05:29:58;12.05;;;5.78;;
66721;SDS011;53633;49.932;10.884;2022-10-31T05:32:36;10.93;;;4.97;;
66721;SDS011;53633;49.932;10.884;2022-10-31T05:35:04;12.05;;;5.55;;
66721;SDS011;53633;49.932;10.884;2022-10-31T05:37:32;11.40;;;5.63;;
66721;SDS011;53633;49.932;10.884;2022-10-31T05:39:59;11.02;;;5.18;;
66721;SDS011;53633;49.932;10.884;2022-10-31T05:42:35;12.48;;;5.90;;
66721;SDS011;53633;49.932;10.884;2022-10-31T05:45:03;14.05;;;5.72;;
66721;SDS011;53633;49.932;10.884;2022-10-31T05:47:32;13.05;;;5.60;;
66721;SDS011;53633;49.932;10.884;2022-10-31T05:49:58;12.00;;;6.00;;
66721;SDS011;53633;49.932;10.884;2022-10-31T05:52:26;14.55;;;6.03;;
66721;SDS011;53633;49.932;10.884;2022-10-31T05:54:53;14.02;;;6.10;;
66721;SDS011;53633;49.932;10.884;2022-10-31T05:57:20;16.38;;;6.65;;
66721;SDS011;53633;49.932;10.884;2022-10-31T05:59:50;16.00;;;7.53;;
66721;SDS011;53633;49.932;10.884;2022-10-31T06:02:20;15.98;;;6.22;;
66721;SDS011;53633;49.932;10.884;2022-10-31T06:04:47;17.80;;;6.60;;
66721;SDS011;53633;49.932;10.884;2022-10-31T06:07:14;15.30;;;6.68;;
66721;SDS011;53633;49.932;10.884;2022-10-31T06:09:41;15.02;;;7.05;;
66721;SDS011;53633;49.932;10.884;2022-10-31T06:12:08;18.77;;;6.88;;
66721;SDS011;53633;49.932;10.884;2022-10-31T06:14:35;18.70;;;8.05;;
66721;SDS011;53633;49.932;10.884;2022-10-31T06:17:04;17.02;;;7.45;;
66721;SDS011;53633;49.932;10.884;2022-10-31T06:19:31;17.25;;;7.80;;
66721;SDS011;53633;49.932;10.884;2022-10-31T06:21:58;18.52;;;7.65;;
66721;SDS011;53633;49.932;10.884;2022-10-31T06:24:25;17.33;;;7.55;;
66721;SDS011;53633;49.932;10.884;2022-10-31T06:26:53;16.50;;;7.93;;
66721;SDS011;53633;49.932;10.884;2022-10-31T06:29:21;16.90;;;7.68;;
66721;SDS011;53633;49.932;10.884;2022-10-31T06:31:50;21.13;;;8.27;;
66721;SDS011;53633;49.932;10.884;2022-10-31T06:34:19;17.65;;;7.68;;
66721;SDS011;53633;49.932;10.884;2022-10-31T06:36:46;16.92;;;8.02;;
66721;SDS011;53633;49.932;10.884;2022-10-31T06:39:13;19.75;;;8.48;;
66721;SDS011;53633;49.932;10.884;2022-10-31T06:41:40;19.48;;;8.10;;
66721;SDS011;53633;49.932;10.884;2022-10-31T06:44:08;18.85;;;7.55;;
66721;SDS011;53633;49.932;10.884;2022-10-31T06:46:35;17.42;;;7.70;;
66721;SDS011;53633;49.932;10.884;2022-10-31T06:49:02;19.13;;;8.18;;
66721;SDS011;53633;49.932;10.884;2022-10-31T06:51:30;19.10;;;8.73;;
66721;SDS011;53633;49.932;10.884;2022-10-31T06:53:58;19.17;;;8.77;;
66721;SDS011;53633;49.932;10.884;2022-10-31T06:56:25;20.98;;;8.75;;
66721;SDS011;53633;49.932;10.884;2022-10-31T06:58:51;17.85;;;8.68;;
66721;SDS011;53633;49.932;10.884;2022-10-31T07:01:18;18.70;;;8.00;;
66721;SDS011;53633;49.932;10.884;2022-10-31T07:03:46;19.33;;;8.23;;
66721;SDS011;53633;49.932;10.884;2022-10-31T07:06:13;15.23;;;7.90;;
66721;SDS011;53633;49.932;10.884;2022-10-31T07:08:41;16.35;;;8.02;;
66721;SDS011;53633;49.932;10.884;2022-10-31T07:11:08;18.25;;;7.20;;
66721;SDS011;53633;49.932;10.884;2022-10-31T07:13:35;15.43;;;7.43;;
66721;SDS011;53633;49.932;10.884;2022-10-31T07:16:03;14.88;;;7.25;;
66721;SDS011;53633;49.932;10.884;2022-10-31T07:18:31;12.60;;;6.78;;
66721;SDS011;53633;49.932;10.884;2022-10-31T07:20:58;11.90;;;6.53;;
66721;SDS011;53633;49.932;10.884;2022-10-31T07:23:25;11.88;;;6.70;;
66721;SDS011;53633;49.932;10.884;2022-10-31T07:25:55;11.90;;;6.43;;
66721;SDS011;53633;49.932;10.884;2022-10-31T07:28:23;19.47;;;7.03;;
66721;SDS011;53633;49.932;10.884;2022-10-31T07:30:51;12.38;;;6.50;;
66721;SDS011;53633;49.932;10.884;2022-10-31T07:33:18;13.25;;;6.22;;
66721;SDS011;53633;49.932;10.884;2022-10-31T07:35:48;11.88;;;7.03;;
66721;SDS011;53633;49.932;10.884;2022-10-31T07:38:16;12.68;;;6.22;;
66721;SDS011;53633;49.932;10.884;2022-10-31T07:40:51;13.88;;;6.50;;
66721;SDS011;53633;49.932;10.884;2022-10-31T07:43:20;14.25;;;7.30;;
66721;SDS011;53633;49.932;10.884;2022-10-31T07:45:50;15.00;;;7.20;;
66721;SDS011;53633;49.932;10.884;2022-10-31T07:48:21;12.63;;;6.53;;
66721;SDS011;53633;49.932;10.884;2022-10-31T07:50:48;11.00;;;5.85;;
66721;SDS011;53633;49.932;10.884;2022-10-31T07:53:15;12.50;;;6.20;;
66721;SDS011;53633;49.932;10.884;2022-10-31T07:55:42;12.00;;;6.50;;
66721;SDS011;53633;49.932;10.884;2022-10-31T07:58:10;15.93;;;7.68;;
66721;SDS011;53633;49.932;10.884;2022-10-31T08:00:40;14.88;;;6.65;;
66721;SDS011;53633;49.932;10.884;2022-10-31T08:03:09;13.10;;;6.60;;
66721;SDS011;53633;49.932;10.884;2022-10-31T08:05:38;12.83;;;7.17;;
66721;SDS011;53633;49.932;10.884;2022-10-31T08:08:05;13.38;;;6.60;;
66721;SDS011;53633;49.932;10.884;2022-10-31T08:10:33;11.77;;;6.57;;
66721;SDS011;53633;49.932;10.884;2022-10-31T08:13:02;14.88;;;6.50;;
66721;SDS011;53633;49.932;10.884;2022-10-31T08:15:31;15.43;;;6.88;;
66721;SDS011;53633;49.932;10.884;2022-10-31T08:18:00;12.30;;;6.70;;
66721;SDS011;53633;49.932;10.884;2022-10-31T08:20:28;13.98;;;7.30;;
66721;SDS011;53633;49.932;10.884;2022-10-31T08:23:03;14.48;;;7.32;;
66721;SDS011;53633;49.932;10.884;2022-10-31T08:25:31;13.00;;;6.82;;
66721;SDS011;53633;49.932;10.884;2022-10-31T08:28:04;13.85;;;6.78;;
66721;SDS011;53633;49.932;10.884;2022-10-31T08:30:32;14.70;;;7.40;;
66721;SDS011;53633;49.932;10.884;2022-10-31T08:33:03;13.90;;;7.15;;
66721;SDS011;53633;49.932;10.884;2022-10-31T08:35:31;12.32;;;6.57;;
66721;SDS011;53633;49.932;10.884;2022-10-31T08:37:59;12.75;;;7.57;;
66721;SDS011;53633;49.932;10.884;2022-10-31T08:40:27;10.95;;;6.07;;
66721;SDS011;53633;49.932;10.884;2022-10-31T08:42:56;14.03;;;7.33;;
66721;SDS011;53633;49.932;10.884;2022-10-31T08:45:25;14.75;;;6.55;;
66721;SDS011;53633;49.932;10.884;2022-10-31T08:48:00;12.55;;;6.03;;
66721;SDS011;53633;49.932;10.884;2022-10-31T08:50:30;8.93;;;5.05;;
66721;SDS011;53633;49.932;10.884;2022-10-31T08:53:01;15.98;;;6.10;;
66721;SDS011;53633;49.932;10.884;2022-10-31T08:55:32;11.80;;;5.67;;
66721;SDS011;53633;49.932;10.884;2022-10-31T08:57:59;10.48;;;6.00;;
66721;SDS011;53633;49.932;10.884;2022-10-31T09:00:26;11.30;;;6.43;;
66721;SDS011;53633;49.932;10.884;2022-10-31T09:02:56;12.48;;;6.10;;
66721;SDS011;53633;49.932;10.884;2022-10-31T09:05:24;13.60;;;6.57;;
66721;SDS011;53633;49.932;10.884;2022-10-31T09:07:52;10.53;;;6.07;;
66721;SDS011;53633;49.932;10.884;2022-10-31T09:10:22;12.57;;;6.13;;
66721;SDS011;53633;49.932;10.884;2022-10-31T09:12:54;25.38;;;7.07;;
66721;SDS011;53633;49.932;10.884;2022-10-31T09:15:29;22.58;;;8.32;;
66721;SDS011;53633;49.932;10.884;2022-10-31T09:17:59;24.25;;;7.82;;
66721;SDS011;53633;49.932;10.884;2022-10-31T09:20:27;13.48;;;6.65;;
66721;SDS011;53633;49.932;10.884;2022-10-31T09:23:00;12.55;;;6.00;;
66721;SDS011;53633;49.932;10.884;2022-10-31T09:25:28;10.20;;;6.05;;
66721;SDS011;53633;49.932;10.884;2022-10-31T09:27:55;12.90;;;6.32;;
66721;SDS011;53633;49.932;10.884;2022-10-31T09:30:23;12.38;;;6.30;;
66721;SDS011;53633;49.932;10.884;2022-10-31T09:32:56;13.77;;;6.17;;
66721;SDS011;53633;49.932;10.884;2022-10-31T09:35:23;12.40;;;6.53;;
66721;SDS011;53633;49.932;10.884;2022-10-31T09:37:54;11.88;;;6.55;;
66721;SDS011;53633;49.932;10.884;2022-10-31T09:40:24;11.95;;;6.78;;
66721;SDS011;53633;49.932;10.884;2022-10-31T09:42:57;11.60;;;6.80;;
66721;SDS011;53633;49.932;10.884;2022-10-31T09:45:32;11.00;;;6.22;;
66721;SDS011;53633;49.932;10.884;2022-10-31T09:48:08;9.77;;;6.15;;
66721;SDS011;53633;49.932;10.884;2022-10-31T09:50:44;9.57;;;5.97;;
66721;SDS011;53633;49.932;10.884;2022-10-31T09:53:16;12.65;;;6.47;;
66721;SDS011;53633;49.932;10.884;2022-10-31T09:55:51;13.48;;;7.03;;
66721;SDS011;53633;49.932;10.884;2022-10-31T09:58:20;11.10;;;6.40;;
66721;SDS011;53633;49.932;10.884;2022-10-31T10:01:01;12.45;;;6.72;;
66721;SDS011;53633;49.932;10.884;2022-10-31T10:03:32;12.52;;;6.82;;
66721;SDS011;53633;49.932;10.884;2022-10-31T10:06:05;13.73;;;7.07;;
66721;SDS011;53633;49.932;10.884;2022-10-31T10:08:38;13.30;;;7.15;;
66721;SDS011;53633;49.932;10.884;2022-10-31T10:11:13;11.37;;;6.73;;
66721;SDS011;53633;49.932;10.884;2022-10-31T10:13:57;15.05;;;7.80;;
66721;SDS011;53633;49.932;10.884;2022-10-31T10:16:41;12.50;;;6.63;;
66721;SDS011;53633;49.932;10.884;2022-10-31T10:19:23;10.90;;;6.35;;
66721;SDS011;53633;49.932;10.884;2022-10-31T10:22:04;11.80;;;6.60;;
66721;SDS011;53633;49.932;10.884;2022-10-31T10:24:47;11.63;;;6.63;;
66721;SDS011;53633;49.932;10.884;2022-10-31T10:27:23;13.07;;;6.43;;
66721;SDS011;53633;49.932;10.884;2022-10-31T10:30:01;15.43;;;7.50;;
66721;SDS011;53633;49.932;10.884;2022-10-31T10:32:33;13.18;;;8.20;;
66721;SDS011;53633;49.932;10.884;2022-10-31T10:35:17;15.20;;;7.72;;
66721;SDS011;53633;49.932;10.884;2022-10-31T10:37:49;11.30;;;6.77;;
66721;SDS011;53633;49.932;10.884;2022-10-31T10:40:19;13.63;;;7.18;;
66721;SDS011;53633;49.932;10.884;2022-10-31T10:42:53;13.40;;;7.75;;
66721;SDS011;53633;49.932;10.884;2022-10-31T10:45:25;13.98;;;6.57;;
66721;SDS011;53633;49.932;10.884;2022-10-31T10:47:54;12.63;;;6.72;;
66721;SDS011;53633;49.932;10.884;2022-10-31T10:50:27;11.37;;;7.03;;
66721;SDS011;53633;49.932;10.884;2022-10-31T10:53:00;11.68;;;6.88;;
66721;SDS011;53633;49.932;10.884;2022-10-31T10:55:33;13.45;;;7.13;;
66721;SDS011;53633;49.932;10.884;2022-10-31T10:58:08;13.55;;;7.57;;
66721;SDS011;53633;49.932;10.884;2022-10-31T11:00:38;14.15;;;7.65;;
66721;SDS011;53633;49.932;10.884;2022-10-31T11:03:07;13.47;;;7.53;;
66721;SDS011;53633;49.932;10.884;2022-10-31T11:05:35;11.65;;;7.30;;
66721;SDS011;53633;49.932;10.884;2022-10-31T11:08:05;12.55;;;7.25;;
66721;SDS011;53633;49.932;10.884;2022-10-31T11:10:33;13.48;;;7.47;;
66721;SDS011;53633;49.932;10.884;2022-10-31T11:13:06;16.25;;;7.72;;
66721;SDS011;53633;49.932;10.884;2022-10-31T11:15:51;12.73;;;7.53;;
66721;SDS011;53633;49.932;10.884;2022-10-31T11:18:22;12.65;;;7.90;;
66721;SDS011;53633;49.932;10.884;2022-10-31T11:20:52;13.43;;;7.25;;
66721;SDS011;53633;49.932;10.884;2022-10-31T11:23:20;17.10;;;7.93;;
66721;SDS011;53633;49.932;10.884;2022-10-31T11:25:50;12.02;;;7.07;;
66721;SDS011;53633;49.932;10.884;2022-10-31T11:28:20;13.13;;;7.63;;
66721;SDS011;53633;49.932;10.884;2022-10-31T11:30:48;13.10;;;8.07;;
66721;SDS011;53633;49.932;10.884;2022-10-31T11:33:19;12.98;;;7.72;;
66721;SDS011;53633;49.932;10.884;2022-10-31T11:35:51;13.35;;;8.35;;
66721;SDS011;53633;49.932;10.884;2022-10-31T11:38:24;13.65;;;7.70;;
66721;SDS011;53633;49.932;10.884;2022-10-31T11:40:55;16.73;;;8.90;;
66721;SDS011;53633;49.932;10.884;2022-10-31T11:43:27;14.00;;;8.38;;
66721;SDS011;53633;49.932;10.884;2022-10-31T11:45:54;18.52;;;8.98;;
66721;SDS011;53633;49.932;10.884;2022-10-31T11:48:22;15.95;;;8.27;;
66721;SDS011;53633;49.932;10.884;2022-10-31T11:50:51;13.85;;;7.90;;
66721;SDS011;53633;49.932;10.884;2022-10-31T11:53:25;14.70;;;8.17;;
66721;SDS011;53633;49.932;10.884;2022-10-31T11:56:03;14.02;;;8.10;;
66721;SDS011;53633;49.932;10.884;2022-10-31T11:58:34;15.73;;;8.23;;
66721;SDS011;53633;49.932;10.884;2022-10-31T12:01:01;16.15;;;8.50;;
66721;SDS011;53633;49.932;10.884;2022-10-31T12:03:38;18.15;;;8.57;;
66721;SDS011;53633;49.932;10.884;2022-10-31T12:06:16;14.57;;;8.47;;
66721;SDS011;53633;49.932;10.884;2022-10-31T12:08:48;15.93;;;8.85;;
66721;SDS011;53633;49.932;10.884;2022-10-31T12:11:19;13.90;;;8.05;;
66721;SDS011;53633;49.932;10.884;2022-10-31T12:14:02;13.68;;;7.88;;
66721;SDS011;53633;49.932;10.884;2022-10-31T12:16:40;16.27;;;8.43;;
66721;SDS011;53633;49.932;10.884;2022-10-31T12:19:14;12.93;;;7.77;;
66721;SDS011;53633;49.932;10.884;2022-10-31T12:22:19;15.05;;;8.55;;
66721;SDS011;53633;49.932;10.884;2022-10-31T12:24:56;15.63;;;8.32;;
66721;SDS011;53633;49.932;10.884;2022-10-31T12:27:34;12.93;;;7.72;;
66721;SDS011;53633;49.932;10.884;2022-10-31T12:30:20;12.65;;;7.80;;
66721;SDS011;53633;49.932;10.884;2022-10-31T12:33:00;14.50;;;8.87;;
66721;SDS011;53633;49.932;10.884;2022-10-31T12:35:47;14.18;;;8.45;;
66721;SDS011;53633;49.932;10.884;2022-10-31T12:38:26;14.38;;;8.40;;
66721;SDS011;53633;49.932;10.884;2022-10-31T12:41:11;14.77;;;9.13;;
66721;SDS011;53633;49.932;10.884;2022-10-31T12:43:47;15.63;;;9.27;;
66721;SDS011;53633;49.932;10.884;2022-10-31T12:46:25;13.70;;;8.80;;
66721;SDS011;53633;49.932;10.884;2022-10-31T12:49:12;13.90;;;8.68;;
66721;SDS011;53633;49.932;10.884;2022-10-31T12:51:53;14.55;;;8.73;;
66721;SDS011;53633;49.932;10.884;2022-10-31T12:54:33;13.27;;;8.20;;
66721;SDS011;53633;49.932;10.884;2022-10-31T12:57:18;15.90;;;8.75;;
66721;SDS011;53633;49.932;10.884;2022-10-31T12:59:51;13.83;;;8.27;;
66721;SDS011;53633;49.932;10.884;2022-10-31T13:02:23;15.10;;;8.98;;
66721;SDS011;53633;49.932;10.884;2022-10-31T13:04:55;14.05;;;8.85;;
66721;SDS011;53633;49.932;10.884;2022-10-31T13:07:30;17.10;;;9.40;;
66721;SDS011;53633;49.932;10.884;2022-10-31T13:10:01;14.93;;;8.75;;
66721;SDS011;53633;49.932;10.884;2022-10-31T13:12:34;14.77;;;8.40;;
66721;SDS011;53633;49.932;10.884;2022-10-31T13:15:04;13.32;;;7.70;;
66721;SDS011;53633;49.932;10.884;2022-10-31T13:17:41;14.95;;;8.20;;
66721;SDS011;53633;49.932;10.884;2022-10-31T13:20:18;16.17;;;8.52;;
66721;SDS011;53633;49.932;10.884;2022-10-31T13:22:49;14.88;;;9.25;;
66721;SDS011;53633;49.932;10.884;2022-10-31T13:25:21;15.67;;;8.93;;
66721;SDS011;53633;49.932;10.884;2022-10-31T13:27:53;15.90;;;8.43;;
66721;SDS011;53633;49.932;10.884;2022-10-31T13:30:23;15.18;;;9.65;;
66721;SDS011;53633;49.932;10.884;2022-10-31T13:33:01;14.32;;;8.85;;
66721;SDS011;53633;49.932;10.884;2022-10-31T13:35:35;16.90;;;9.07;;
66721;SDS011;53633;49.932;10.884;2022-10-31T13:38:10;14.40;;;8.13;;
66721;SDS011;53633;49.932;10.884;2022-10-31T13:40:46;18.17;;;9.43;;
66721;SDS011;53633;49.932;10.884;2022-10-31T13:43:22;17.45;;;9.35;;
66721;SDS011;53633;49.932;10.884;2022-10-31T13:45:55;16.75;;;9.07;;
66721;SDS011;53633;49.932;10.884;2022-10-31T13:48:35;16.70;;;8.90;;
66721;SDS011;53633;49.932;10.884;2022-10-31T13:51:05;16.10;;;9.10;;
66721;SDS011;53633;49.932;10.884;2022-10-31T13:53:40;16.52;;;9.55;;
66721;SDS011;53633;49.932;10.884;2022-10-31T13:56:13;16.55;;;8.60;;
66721;SDS011;53633;49.932;10.884;2022-10-31T13:58:43;16.10;;;9.63;;
66721;SDS011;53633;49.932;10.884;2022-10-31T14:01:25;18.52;;;10.73;;
66721;SDS011;53633;49.932;10.884;2022-10-31T14:03:57;16.73;;;9.77;;
66721;SDS011;53633;49.932;10.884;2022-10-31T14:06:40;14.57;;;9.18;;
66721;SDS011;53633;49.932;10.884;2022-10-31T14:09:21;17.13;;;9.85;;
66721;SDS011;53633;49.932;10.884;2022-10-31T14:11:51;15.55;;;9.35;;
66721;SDS011;53633;49.932;10.884;2022-10-31T14:14:19;18.42;;;10.52;;
66721;SDS011;53633;49.932;10.884;2022-10-31T14:16:52;16.93;;;10.10;;
66721;SDS011;53633;49.932;10.884;2022-10-31T14:19:23;15.95;;;9.35;;
66721;SDS011;53633;49.932;10.884;2022-10-31T14:21:51;18.17;;;9.52;;
66721;SDS011;53633;49.932;10.884;2022-10-31T14:24:31;15.57;;;9.55;;
66721;SDS011;53633;49.932;10.884;2022-10-31T14:27:01;19.08;;;10.00;;
66721;SDS011;53633;49.932;10.884;2022-10-31T14:29:30;18.07;;;10.50;;
66721;SDS011;53633;49.932;10.884;2022-10-31T14:32:00;17.52;;;9.35;;
66721;SDS011;53633;49.932;10.884;2022-10-31T14:34:38;17.05;;;9.60;;
66721;SDS011;53633;49.932;10.884;2022-10-31T14:40:11;18.30;;;10.45;;
66721;SDS011;53633;49.932;10.884;2022-10-31T14:43:06;17.60;;;9.97;;
66721;SDS011;53633;49.932;10.884;2022-10-31T14:45:45;16.08;;;10.05;;
66721;SDS011;53633;49.932;10.884;2022-10-31T14:48:27;17.67;;;9.95;;
66721;SDS011;53633;49.932;10.884;2022-10-31T14:51:17;15.15;;;9.13;;
66721;SDS011;53633;49.932;10.884;2022-10-31T14:53:47;14.25;;;9.30;;
66721;SDS011;53633;49.932;10.884;2022-10-31T14:56:17;16.07;;;8.70;;